createdAt,value
2023-04-02T00:00:32.665Z,23.50
2023-04-02T00:02:38.544Z,24.67
2023-04-02T00:04:43.639Z,52.97
2023-04-02T00:06:49.424Z,27.75
2023-04-02T00:08:56.448Z,26.85
2023-04-02T00:11:04.629Z,29.45
2023-04-02T00:13:28.349Z,32.55
2023-04-02T00:15:34.469Z,20.88
2023-04-02T00:17:39.749Z,22.52
2023-04-02T00:19:52.500Z,20.38
2023-04-02T00:22:00.014Z,23.73
2023-04-02T00:24:13.630Z,19.27
2023-04-02T00:26:31.965Z,27.13
2023-04-02T00:28:40.116Z,27.73
2023-04-02T00:30:52.360Z,31.60
2023-04-02T00:32:58.057Z,26.60
2023-04-02T00:35:04.346Z,30.27
2023-04-02T00:37:09.665Z,21.23
2023-04-02T00:39:22.769Z,23.77
2023-04-02T00:41:36.333Z,26.35
2023-04-02T00:43:50.871Z,23.48
2023-04-02T00:46:01.444Z,21.83
2023-04-02T00:48:23.925Z,20.33
2023-04-02T00:50:35.998Z,22.75
2023-04-02T00:52:43.445Z,21.25
2023-04-02T00:54:55.307Z,21.75
2023-04-02T00:57:01.589Z,19.58
2023-04-02T00:59:23.842Z,24.55
2023-04-02T01:01:34.411Z,22.77
2023-04-02T01:03:41.333Z,22.67
2023-04-02T01:05:50.395Z,23.23
2023-04-02T01:08:10.319Z,21.77
2023-04-02T01:10:37.440Z,25.15
2023-04-02T01:12:55.748Z,36.30
2023-04-02T01:15:14.190Z,27.75
2023-04-02T01:17:46.908Z,34.90
2023-04-02T01:20:36.790Z,21.15
2023-04-02T01:22:52.583Z,28.48
2023-04-02T01:25:00.877Z,27.92
2023-04-02T01:27:09.486Z,29.67
2023-04-02T01:29:20.055Z,23.45
2023-04-02T01:31:27.520Z,27.20
2023-04-02T01:33:37.178Z,25.45
2023-04-02T01:35:48.491Z,26.48
2023-04-02T01:38:02.267Z,30.60
2023-04-02T01:40:26.147Z,29.63
2023-04-02T01:42:38.957Z,28.70
2023-04-02T01:44:51.530Z,30.73
2023-04-02T01:46:58.988Z,19.17
2023-04-02T01:49:12.838Z,21.50
2023-04-02T01:51:31.250Z,16.25
2023-04-02T01:53:37.234Z,12.77
2023-04-02T01:55:47.691Z,17.85
2023-04-02T01:57:56.510Z,25.88
2023-04-02T02:00:13.592Z,11.05
2023-04-02T02:02:19.956Z,14.35
2023-04-02T02:04:25.333Z,16.65
2023-04-02T02:06:31.522Z,12.50
2023-04-02T02:08:42.611Z,10.55
2023-04-02T02:10:48.541Z,9.52
2023-04-02T02:12:54.093Z,9.13
2023-04-02T02:14:59.238Z,13.40
2023-04-02T02:17:13.727Z,11.60
2023-04-02T02:19:31.424Z,11.57
2023-04-02T02:21:43.338Z,11.00
2023-04-02T02:23:48.625Z,11.15
2023-04-02T02:25:53.755Z,8.77
2023-04-02T02:28:06.162Z,11.60
2023-04-02T02:30:19.038Z,10.38
2023-04-02T02:32:32.406Z,9.88
2023-04-02T02:36:55.499Z,4.25
2023-04-02T02:39:07.463Z,3.53
2023-04-02T02:41:27.788Z,5.43
2023-04-02T02:43:37.812Z,2.40
2023-04-02T02:45:44.612Z,2.17
2023-04-02T02:47:55.718Z,1.50
2023-04-02T02:50:05.336Z,2.05
2023-04-02T02:52:20.206Z,2.28
2023-04-02T02:54:34.285Z,2.08
2023-04-02T02:56:45.058Z,2.22
2023-04-02T02:58:53.617Z,2.95
2023-04-02T03:01:03.294Z,2.67
2023-04-02T03:03:18.414Z,2.47
2023-04-02T03:05:30.664Z,1.95
2023-04-02T03:07:42.543Z,1.58
2023-04-02T03:09:56.524Z,1.83
2023-04-02T03:12:10.837Z,1.80
2023-04-02T03:14:27.469Z,1.83
2023-04-02T03:16:41.463Z,3.78
2023-04-02T03:18:56.384Z,2.92
2023-04-02T03:21:08.892Z,3.67
2023-04-02T03:23:21.331Z,2.00
2023-04-02T03:25:37.294Z,2.95
2023-04-02T03:27:48.423Z,4.90
2023-04-02T03:30:16.611Z,4.53
2023-04-02T03:32:26.497Z,3.83
2023-04-02T03:34:40.126Z,3.30
2023-04-02T03:36:54.109Z,3.80
2023-04-02T03:39:12.108Z,2.88
2023-04-02T03:41:24.732Z,4.18
2023-04-02T03:43:35.337Z,2.83
2023-04-02T03:45:46.884Z,2.75
2023-04-02T03:47:57.328Z,3.47
2023-04-02T03:50:11.456Z,3.45
2023-04-02T03:52:28.774Z,3.03
2023-04-02T03:54:36.820Z,2.83
2023-04-02T03:56:42.437Z,1.90
2023-04-02T03:58:58.771Z,8.40
2023-04-02T04:01:15.042Z,7.53
2023-04-02T04:03:24.188Z,4.82
2023-04-02T04:05:35.252Z,3.08
2023-04-02T04:07:45.445Z,3.72
2023-04-02T04:09:55.564Z,3.70
2023-04-02T04:12:17.237Z,2.88
2023-04-02T04:14:31.394Z,4.05
2023-04-02T04:16:47.866Z,3.22
2023-04-02T04:19:03.381Z,5.82
2023-04-02T04:21:30.120Z,7.50
2023-04-02T04:23:49.988Z,4.25
2023-04-02T04:26:05.602Z,2.92
2023-04-02T04:28:24.659Z,6.10
2023-04-02T04:30:42.199Z,6.13
2023-04-02T04:32:52.931Z,4.40
2023-04-02T04:35:08.566Z,3.55
2023-04-02T04:37:25.342Z,5.20
2023-04-02T04:39:43.194Z,3.80
2023-04-02T04:41:51.472Z,3.92
2023-04-02T04:44:07.087Z,3.78
2023-04-02T04:46:19.437Z,2.65
2023-04-02T04:48:30.014Z,4.05
2023-04-02T04:50:41.785Z,3.33
2023-04-02T04:52:50.442Z,3.03
2023-04-02T04:54:55.964Z,4.30
2023-04-02T04:57:08.293Z,4.40
2023-04-02T04:59:22.030Z,6.03
2023-04-02T05:01:36.776Z,6.78
2023-04-02T05:03:49.070Z,3.38
2023-04-02T05:05:55.709Z,2.40
2023-04-02T05:08:12.955Z,2.92
2023-04-02T05:10:28.053Z,2.33
2023-04-02T05:12:39.806Z,4.28
2023-04-02T05:14:56.750Z,7.10
2023-04-02T05:17:07.391Z,13.23
2023-04-02T05:19:20.591Z,3.30
2023-04-02T05:21:34.961Z,3.80
2023-04-02T05:23:51.972Z,3.58
2023-04-02T05:26:06.662Z,3.05
2023-04-02T05:28:22.528Z,4.30
2023-04-02T05:30:53.484Z,3.38
2023-04-02T05:33:08.092Z,6.15
2023-04-02T05:37:28.997Z,3.17
2023-04-02T05:39:37.743Z,3.50
2023-04-02T05:41:47.639Z,5.38
2023-04-02T05:44:13.592Z,4.10
2023-04-02T05:48:33.276Z,2.92
2023-04-02T05:50:46.195Z,5.35
2023-04-02T05:53:04.127Z,5.68
2023-04-02T05:57:56.651Z,4.60
2023-04-02T06:00:18.976Z,5.78
2023-04-02T06:02:33.779Z,4.25
2023-04-02T06:07:07.026Z,3.78
2023-04-02T06:09:18.316Z,3.75
2023-04-02T06:11:33.617Z,4.32
2023-04-02T06:13:41.597Z,8.25
2023-04-02T06:15:48.102Z,3.70
2023-04-02T06:18:11.979Z,4.47
2023-04-02T06:20:23.699Z,3.95
2023-04-02T06:22:39.207Z,7.07
2023-04-02T06:24:48.979Z,4.93
2023-04-02T06:27:02.659Z,4.22
2023-04-02T06:29:13.840Z,4.88
2023-04-02T06:31:30.665Z,4.75
2023-04-02T06:33:36.602Z,4.38
2023-04-02T06:35:46.889Z,7.32
2023-04-02T06:37:58.772Z,5.20
2023-04-02T06:40:20.872Z,4.93
2023-04-02T06:42:34.130Z,4.55
2023-04-02T06:44:46.717Z,5.00
2023-04-02T06:47:19.708Z,4.65
2023-04-02T06:49:36.499Z,4.80
2023-04-02T06:51:46.084Z,4.57
2023-04-02T06:53:53.867Z,5.63
2023-04-02T06:56:07.072Z,6.20
2023-04-02T06:58:18.046Z,4.00
2023-04-02T07:00:33.220Z,7.80
2023-04-02T07:02:42.640Z,4.50
2023-04-02T07:04:49.850Z,4.53
2023-04-02T07:06:57.096Z,4.13
2023-04-02T07:09:07.082Z,3.53
2023-04-02T07:11:20.642Z,3.78
2023-04-02T07:13:30.688Z,4.78
2023-04-02T07:15:37.604Z,3.13
2023-04-02T07:17:43.000Z,4.88
2023-04-02T07:19:49.826Z,3.58
2023-04-02T07:21:57.301Z,8.30
2023-04-02T07:24:06.317Z,2.58
2023-04-02T07:26:21.158Z,2.97
2023-04-02T07:28:26.576Z,2.35
2023-04-02T07:30:34.583Z,3.13
2023-04-02T07:32:39.622Z,5.60
2023-04-02T07:34:45.652Z,3.28
2023-04-02T07:36:50.759Z,7.32
2023-04-02T07:38:56.612Z,4.35
2023-04-02T07:41:07.380Z,1.70
2023-04-02T07:43:12.528Z,2.83
2023-04-02T07:45:18.405Z,2.20
2023-04-02T07:47:26.713Z,2.15
2023-04-02T07:49:32.034Z,2.33
2023-04-02T07:51:37.949Z,2.50
2023-04-02T07:53:43.100Z,2.95
2023-04-02T07:55:48.991Z,4.30
2023-04-02T07:57:57.483Z,4.03
2023-04-02T08:00:02.536Z,2.17
2023-04-02T08:02:26.565Z,1.80
2023-04-02T08:04:31.745Z,1.83
2023-04-02T08:06:36.855Z,1.25
2023-04-02T08:08:42.520Z,2.13
2023-04-02T08:10:48.570Z,1.48
2023-04-02T08:12:53.781Z,2.95
2023-04-02T08:14:59.136Z,2.33
2023-04-02T08:17:04.581Z,1.45
2023-04-02T08:19:12.310Z,2.00
2023-04-02T08:21:17.712Z,2.85
2023-04-02T08:23:22.847Z,3.05
2023-04-02T08:25:27.982Z,6.40
2023-04-02T08:27:33.123Z,3.08
2023-04-02T08:29:38.455Z,6.28
2023-04-02T08:31:43.843Z,3.22
2023-04-02T08:33:49.223Z,4.25
2023-04-02T08:35:57.104Z,4.63
2023-04-02T08:38:02.399Z,3.53
2023-04-02T08:40:10.229Z,3.75
2023-04-02T08:42:29.585Z,3.03
2023-04-02T08:44:53.156Z,4.93
2023-04-02T08:47:04.321Z,3.40
2023-04-02T08:49:17.217Z,3.25
2023-04-02T08:51:27.987Z,3.22
2023-04-02T08:53:38.176Z,3.10
2023-04-02T08:55:48.526Z,3.60
2023-04-02T08:58:03.714Z,4.25
2023-04-02T09:00:23.544Z,3.03
2023-04-02T09:02:41.057Z,3.78
2023-04-02T09:04:46.368Z,3.28
2023-04-02T09:06:58.136Z,4.13
2023-04-02T09:09:05.139Z,3.05
2023-04-02T09:11:21.939Z,2.60
2023-04-02T09:13:30.643Z,3.38
2023-04-02T09:15:38.829Z,2.67
2023-04-02T09:17:53.511Z,3.88
2023-04-02T09:20:05.701Z,2.33
2023-04-02T09:22:22.522Z,5.38
2023-04-02T09:24:28.010Z,4.55
2023-04-02T09:26:35.283Z,6.00
2023-04-02T09:28:40.827Z,7.05
2023-04-02T09:31:06.623Z,4.38
2023-04-02T09:33:13.292Z,5.95
2023-04-02T09:35:26.103Z,3.83
2023-04-02T09:37:45.739Z,3.40
2023-04-02T09:39:51.138Z,2.47
2023-04-02T09:42:05.522Z,4.30
2023-04-02T09:44:24.462Z,3.17
2023-04-02T09:46:30.788Z,5.20
2023-04-02T09:48:40.076Z,2.72
2023-04-02T09:50:46.815Z,3.08
2023-04-02T09:52:56.320Z,5.07
2023-04-02T09:55:24.441Z,5.55
2023-04-02T09:57:31.615Z,7.63
2023-04-02T09:59:38.225Z,4.00
2023-04-02T10:01:48.273Z,9.23
2023-04-02T10:03:55.061Z,2.90
2023-04-02T10:06:12.782Z,6.72
2023-04-02T10:08:28.316Z,5.35
2023-04-02T10:10:40.061Z,9.02
2023-04-02T10:12:47.148Z,7.55
2023-04-02T10:14:53.903Z,4.47
2023-04-02T10:17:01.990Z,4.65
2023-04-02T10:19:20.006Z,5.10
2023-04-02T10:21:29.364Z,5.10
2023-04-02T10:23:37.477Z,5.40
2023-04-02T10:25:51.390Z,6.13
2023-04-02T10:28:07.313Z,4.65
2023-04-02T10:30:26.955Z,5.28
2023-04-02T10:32:40.048Z,5.05
2023-04-02T10:34:53.188Z,8.55
2023-04-02T10:37:03.690Z,5.05
2023-04-02T10:39:19.909Z,5.55
2023-04-02T10:41:35.742Z,5.20
2023-04-02T10:44:19.574Z,4.78
2023-04-02T10:46:37.959Z,4.90
2023-04-02T10:48:54.547Z,6.78
2023-04-02T10:51:06.749Z,4.15
2023-04-02T10:53:18.209Z,7.97
2023-04-02T10:55:33.176Z,8.50
2023-04-02T10:57:41.771Z,10.00
2023-04-02T10:59:53.307Z,5.45
2023-04-02T11:02:02.078Z,7.40
2023-04-02T11:04:20.002Z,5.75
2023-04-02T11:06:29.868Z,9.52
2023-04-02T11:08:44.592Z,10.25
2023-04-02T11:11:04.347Z,7.38
2023-04-02T11:13:18.103Z,9.93
2023-04-02T11:15:23.828Z,7.72
2023-04-02T11:17:29.071Z,9.85
2023-04-02T11:19:36.140Z,5.30
2023-04-02T11:21:57.369Z,4.63
2023-04-02T11:24:05.144Z,7.53
2023-04-02T11:26:41.548Z,8.90
2023-04-02T11:28:46.861Z,16.15
2023-04-02T11:30:52.381Z,9.98
2023-04-02T11:33:23.563Z,10.43
2023-04-02T11:35:42.425Z,12.07
2023-04-02T11:37:51.490Z,14.73
2023-04-02T11:39:59.366Z,7.53
2023-04-02T11:42:25.106Z,10.23
2023-04-02T11:44:30.173Z,13.57
2023-04-02T11:46:48.639Z,13.52
2023-04-02T11:48:55.236Z,10.43
2023-04-02T11:51:04.743Z,11.57
2023-04-02T11:53:24.786Z,13.18
2023-04-02T11:55:35.589Z,17.33
2023-04-02T11:58:30.203Z,14.38
2023-04-02T12:03:23.042Z,14.40
2023-04-02T12:05:36.711Z,18.08
2023-04-02T12:08:05.290Z,15.73
2023-04-02T12:10:21.021Z,11.15
2023-04-02T12:12:36.050Z,13.85
2023-04-02T12:14:51.459Z,14.18
2023-04-02T12:16:56.810Z,13.43
2023-04-02T12:19:03.843Z,16.42
2023-04-02T12:21:09.130Z,14.02
2023-04-02T12:23:24.962Z,14.10
2023-04-02T12:25:33.563Z,13.52
2023-04-02T12:27:39.035Z,17.58
2023-04-02T12:29:44.194Z,17.42
2023-04-02T12:31:52.193Z,14.88
2023-04-02T12:33:57.691Z,19.15
2023-04-02T12:36:05.015Z,19.65
2023-04-02T12:38:25.366Z,20.70
2023-04-02T12:40:31.570Z,15.05
2023-04-02T12:42:38.525Z,16.38
2023-04-02T12:44:52.262Z,13.68
2023-04-02T12:47:01.784Z,13.80
2023-04-02T12:49:11.164Z,15.27
2023-04-02T12:51:17.670Z,15.40
2023-04-02T12:53:27.285Z,13.68
2023-04-02T12:55:33.674Z,15.10
2023-04-02T12:57:42.766Z,13.57
2023-04-02T12:59:49.027Z,14.60
2023-04-02T13:02:04.270Z,13.85
2023-04-02T13:04:15.283Z,13.70
2023-04-02T13:06:27.283Z,12.70
2023-04-02T13:08:40.076Z,13.77
2023-04-02T13:10:46.940Z,10.50
2023-04-02T13:12:57.745Z,11.82
2023-04-02T13:15:06.024Z,10.60
2023-04-02T13:17:43.442Z,8.73
2023-04-02T13:19:49.180Z,10.60
2023-04-02T13:21:55.449Z,9.82
2023-04-02T13:24:01.101Z,9.18
2023-04-02T13:26:18.946Z,15.70
2023-04-02T13:28:24.730Z,14.40
2023-04-02T13:30:31.855Z,12.27
2023-04-02T13:32:37.402Z,12.65
2023-04-02T13:34:45.056Z,9.00
2023-04-02T13:36:50.842Z,8.25
2023-04-02T13:38:56.400Z,7.63
2023-04-02T13:41:01.471Z,10.35
2023-04-02T13:43:07.549Z,10.57
2023-04-02T13:45:24.711Z,9.10
2023-04-02T13:47:29.783Z,10.73
2023-04-02T13:49:35.282Z,10.02
2023-04-02T13:51:47.254Z,7.15
2023-04-02T13:53:57.072Z,5.90
2023-04-02T13:56:02.275Z,7.50
2023-04-02T13:58:08.153Z,8.20
2023-04-02T14:00:15.781Z,17.80
2023-04-02T14:02:25.350Z,7.15
2023-04-02T14:04:35.128Z,5.97
2023-04-02T14:07:17.212Z,7.85
2023-04-02T14:09:31.286Z,9.95
2023-04-02T14:11:50.575Z,7.78
2023-04-02T14:14:30.327Z,10.43
2023-04-02T14:17:07.961Z,6.78
2023-04-02T14:19:36.199Z,7.38
2023-04-02T14:21:54.446Z,7.35
2023-04-02T14:24:15.174Z,6.90
2023-04-02T14:26:29.952Z,17.00
2023-04-02T14:28:46.525Z,8.85
2023-04-02T14:31:01.673Z,9.40
2023-04-02T14:33:17.128Z,5.72
2023-04-02T14:35:30.437Z,7.70
2023-04-02T14:37:48.008Z,6.07
2023-04-02T14:40:06.588Z,8.05
2023-04-02T14:42:17.005Z,8.20
2023-04-02T14:44:27.038Z,10.68
2023-04-02T14:46:38.509Z,9.52
2023-04-02T14:48:54.513Z,8.27
2023-04-02T14:51:04.678Z,9.70
2023-04-02T14:53:24.340Z,9.23
2023-04-02T14:55:36.050Z,6.43
2023-04-02T14:57:49.275Z,7.07
2023-04-02T15:00:03.911Z,7.53
2023-04-02T15:02:19.657Z,8.45
2023-04-02T15:04:31.162Z,7.40
2023-04-02T15:06:40.700Z,8.75
2023-04-02T15:09:08.407Z,10.70
2023-04-02T15:11:19.761Z,7.28
2023-04-02T15:13:31.538Z,20.63
2023-04-02T15:15:46.196Z,8.07
2023-04-02T15:17:51.725Z,13.48
2023-04-02T15:20:11.950Z,13.57
2023-04-02T15:22:33.351Z,12.05
2023-04-02T15:24:53.438Z,7.95
2023-04-02T15:27:21.924Z,11.13
2023-04-02T15:29:47.013Z,8.43
2023-04-02T15:31:54.347Z,9.13
2023-04-02T15:34:20.099Z,7.90
2023-04-02T15:36:44.460Z,8.40
2023-04-02T15:38:58.699Z,12.55
2023-04-02T15:41:13.433Z,6.78
2023-04-02T15:43:26.079Z,8.05
2023-04-02T15:45:46.088Z,10.88
2023-04-02T15:48:18.126Z,11.23
2023-04-02T15:50:47.630Z,8.77
2023-04-02T15:53:04.127Z,9.52
2023-04-02T15:55:25.259Z,10.40
2023-04-02T15:58:15.960Z,9.35
2023-04-02T16:00:30.869Z,8.40
2023-04-02T16:02:58.476Z,9.50
2023-04-02T16:05:10.342Z,10.23
2023-04-02T16:07:32.066Z,7.90
2023-04-02T16:09:51.280Z,10.10
2023-04-02T16:12:02.711Z,8.35
2023-04-02T16:14:32.225Z,17.75
2023-04-02T16:16:38.874Z,10.27
2023-04-02T16:18:57.761Z,14.00
2023-04-02T16:21:06.065Z,15.30
2023-04-02T16:23:18.971Z,15.85
2023-04-02T16:25:29.729Z,12.82
2023-04-02T16:27:41.215Z,14.68
2023-04-02T16:30:11.376Z,17.02
2023-04-02T16:32:27.620Z,10.95
2023-04-02T16:34:47.243Z,11.40
2023-04-02T16:37:03.992Z,9.65
2023-04-02T16:39:24.305Z,8.88
2023-04-02T16:41:50.828Z,11.35
2023-04-02T16:44:08.118Z,11.10
2023-04-02T16:46:38.153Z,12.85
2023-04-02T16:48:53.046Z,11.48
2023-04-02T16:51:11.127Z,9.20
2023-04-02T16:53:34.013Z,13.40
2023-04-02T16:55:53.326Z,9.35
2023-04-02T16:58:14.237Z,10.75
2023-04-02T17:00:31.055Z,14.77
2023-04-02T17:02:55.192Z,10.20
2023-04-02T17:05:12.607Z,9.75
2023-04-02T17:07:38.064Z,8.48
2023-04-02T17:09:51.621Z,12.73
2023-04-02T17:12:03.477Z,14.80
2023-04-02T17:14:18.502Z,11.18
2023-04-02T17:16:30.225Z,9.90
2023-04-02T17:18:38.300Z,7.68
2023-04-02T17:20:44.054Z,34.08
2023-04-02T17:22:50.482Z,15.35
2023-04-02T17:25:00.920Z,29.20
2023-04-02T17:27:15.514Z,15.57
2023-04-02T17:29:26.095Z,16.50
2023-04-02T17:31:37.555Z,10.93
2023-04-02T17:33:45.417Z,8.75
2023-04-02T17:36:07.364Z,9.95
2023-04-02T17:38:22.605Z,13.57
2023-04-02T17:40:35.559Z,6.15
2023-04-02T17:42:53.049Z,7.28
2023-04-02T17:45:14.110Z,10.35
2023-04-02T17:47:26.038Z,6.90
2023-04-02T17:49:39.381Z,8.75
2023-04-02T17:51:54.707Z,7.00
2023-04-02T17:54:19.797Z,5.97
2023-04-02T17:56:58.237Z,8.63
2023-04-02T17:59:24.473Z,13.95
2023-04-02T18:01:37.590Z,14.57
2023-04-02T18:06:06.730Z,21.88
2023-04-02T18:08:24.323Z,12.43
2023-04-02T18:10:40.968Z,11.73
2023-04-02T18:12:59.188Z,8.95
2023-04-02T18:15:34.476Z,14.68
2023-04-02T18:17:50.885Z,12.43
2023-04-02T18:20:05.683Z,8.85
2023-04-02T18:22:21.219Z,11.00
2023-04-02T18:24:57.398Z,8.63
2023-04-02T18:27:19.549Z,10.75
2023-04-02T18:29:37.360Z,14.65
2023-04-02T18:31:52.084Z,9.38
2023-04-02T18:34:34.778Z,9.63
2023-04-02T18:36:51.160Z,8.60
2023-04-02T18:39:04.795Z,10.20
2023-04-02T18:41:45.136Z,7.75
2023-04-02T18:44:09.151Z,7.07
2023-04-02T18:46:26.285Z,10.48
2023-04-02T18:48:43.580Z,7.03
2023-04-02T18:50:51.074Z,6.93
2023-04-02T18:52:56.461Z,11.10
2023-04-02T18:55:16.248Z,18.08
2023-04-02T18:57:28.360Z,17.42
2023-04-02T18:59:45.461Z,15.80
2023-04-02T19:01:54.086Z,11.85
2023-04-02T19:04:05.573Z,10.55
2023-04-02T19:06:19.238Z,10.50
2023-04-02T19:08:31.152Z,10.13
2023-04-02T19:10:44.584Z,24.00
2023-04-02T19:12:49.605Z,11.43
2023-04-02T19:14:56.079Z,9.05
2023-04-02T19:17:05.321Z,12.93
2023-04-02T19:19:20.514Z,12.13
2023-04-02T19:21:37.364Z,10.63
2023-04-02T19:24:03.205Z,7.50
2023-04-02T19:26:16.229Z,10.82
2023-04-02T19:28:31.390Z,10.05
2023-04-02T19:31:12.341Z,11.48
2023-04-02T19:33:35.310Z,9.80
2023-04-02T19:35:48.533Z,9.10
2023-04-02T19:38:05.742Z,6.10
2023-04-02T19:40:37.465Z,8.55
2023-04-02T19:42:51.213Z,14.52
2023-04-02T19:44:57.618Z,6.63
2023-04-02T19:47:02.757Z,7.82
2023-04-02T19:49:14.894Z,9.48
2023-04-02T19:51:19.958Z,9.18
2023-04-02T19:53:25.028Z,8.25
2023-04-02T19:55:30.219Z,6.72
2023-04-02T19:57:36.543Z,6.57
2023-04-02T19:59:44.973Z,10.07
2023-04-02T20:01:50.343Z,6.72
2023-04-02T20:03:55.599Z,10.02
2023-04-02T20:06:01.400Z,7.93
2023-04-02T20:08:06.933Z,8.68
2023-04-02T20:10:14.111Z,8.65
2023-04-02T20:12:19.140Z,17.38
2023-04-02T20:14:24.212Z,16.55
2023-04-02T20:16:33.049Z,12.93
2023-04-02T20:18:38.932Z,7.35
2023-04-02T20:20:44.266Z,10.55
2023-04-02T20:22:50.351Z,9.07
2023-04-02T20:24:55.608Z,9.02
2023-04-02T20:27:00.680Z,10.35
2023-04-02T20:29:06.121Z,20.13
2023-04-02T20:31:14.228Z,10.07
2023-04-02T20:33:25.330Z,8.25
2023-04-02T20:35:34.595Z,10.82
2023-04-02T20:37:41.049Z,11.25
2023-04-02T20:39:46.179Z,9.05
2023-04-02T20:41:51.928Z,8.40
2023-04-02T20:43:57.546Z,9.10
2023-04-02T20:46:05.001Z,6.25
2023-04-02T20:48:10.511Z,6.63
2023-04-02T20:50:18.547Z,9.07
2023-04-02T20:52:24.471Z,7.95
2023-04-02T20:54:29.491Z,14.18
2023-04-02T20:56:34.786Z,8.82
2023-04-02T20:58:41.115Z,7.57
2023-04-02T21:00:46.885Z,8.48
2023-04-02T21:02:51.927Z,8.80
2023-04-02T21:04:56.978Z,11.95
2023-04-02T21:07:04.920Z,20.40
2023-04-02T21:09:14.614Z,11.30
2023-04-02T21:11:22.007Z,14.77
2023-04-02T21:13:27.036Z,12.63
2023-04-02T21:15:32.060Z,12.60
2023-04-02T21:17:37.135Z,11.30
2023-04-02T21:19:42.621Z,14.30
2023-04-02T21:21:48.431Z,10.32
2023-04-02T21:24:01.940Z,12.77
2023-04-02T21:26:09.111Z,10.30
2023-04-02T21:28:14.147Z,9.38
2023-04-02T21:30:19.859Z,10.07
2023-04-02T21:32:25.633Z,18.92
2023-04-02T21:34:30.980Z,17.10
2023-04-02T21:36:37.987Z,26.63
2023-04-02T21:38:45.386Z,21.85
2023-04-02T21:40:53.249Z,24.05
2023-04-02T21:42:58.577Z,19.35
2023-04-02T21:45:03.928Z,17.10
2023-04-02T21:47:09.496Z,17.65
2023-04-02T21:49:16.799Z,22.90
2023-04-02T21:51:24.757Z,17.58
2023-04-02T21:53:30.034Z,15.20
2023-04-02T21:55:35.076Z,14.75
2023-04-02T21:59:46.894Z,18.42
2023-04-02T22:01:54.605Z,24.98
2023-04-02T22:04:01.431Z,15.88
2023-04-02T22:06:09.025Z,12.57
2023-04-02T22:08:14.273Z,14.73
2023-04-02T22:10:19.613Z,14.10
2023-04-02T22:12:25.225Z,12.98
2023-04-02T22:14:33.190Z,13.10
2023-04-02T22:16:39.956Z,16.17
2023-04-02T22:18:46.276Z,13.48
2023-04-02T22:20:51.281Z,13.38
2023-04-02T22:22:56.883Z,14.88
2023-04-02T22:25:03.165Z,11.88
2023-04-02T22:27:08.588Z,14.13
2023-04-02T22:29:13.930Z,16.08
2023-04-02T22:31:23.679Z,16.25
2023-04-02T22:33:29.038Z,16.48
2023-04-02T22:35:34.128Z,12.60
2023-04-02T22:37:39.455Z,13.15
2023-04-02T22:39:44.588Z,13.52
2023-04-02T22:41:49.598Z,14.02
2023-04-02T22:43:54.986Z,13.82
2023-04-02T22:46:00.313Z,17.90
2023-04-02T22:48:08.542Z,15.02
2023-04-02T22:50:14.143Z,18.27
2023-04-02T22:52:19.378Z,13.85
2023-04-02T22:54:24.436Z,16.20
2023-04-02T22:56:33.019Z,11.60
2023-04-02T22:58:39.799Z,13.57
2023-04-02T23:00:45.136Z,10.90
2023-04-02T23:02:50.336Z,14.10
2023-04-02T23:04:57.970Z,15.02
2023-04-02T23:07:03.342Z,12.18
2023-04-02T23:09:08.831Z,10.43
2023-04-02T23:11:16.891Z,12.88
2023-04-02T23:13:22.351Z,8.75
2023-04-02T23:15:27.410Z,21.88
2023-04-02T23:17:32.682Z,17.25
2023-04-02T23:19:38.006Z,13.15
2023-04-02T23:21:45.985Z,14.05
2023-04-02T23:23:52.612Z,14.02
2023-04-02T23:26:07.582Z,11.48
2023-04-02T23:28:15.393Z,16.75
2023-04-02T23:30:20.948Z,13.48
2023-04-02T23:32:26.856Z,15.38
2023-04-02T23:34:31.968Z,10.77
2023-04-02T23:36:38.501Z,15.20
2023-04-02T23:38:46.475Z,12.82
2023-04-02T23:40:51.946Z,10.27
2023-04-02T23:42:56.991Z,14.63
2023-04-02T23:45:02.043Z,12.77
2023-04-02T23:47:07.273Z,15.73
2023-04-02T23:49:14.435Z,9.15
2023-04-02T23:51:20.021Z,11.57
2023-04-02T23:53:25.073Z,7.32
2023-04-02T23:55:32.672Z,7.18
2023-04-02T23:57:37.741Z,8.15
2023-04-02T23:59:43.109Z,13.25
